createdAt,value
2019-03-10T00:00:02.019Z,8.4
2019-03-10T00:05:02.072Z,8.3
2019-03-10T00:10:01.737Z,8.4
2019-03-10T00:15:02.013Z,8.4
2019-03-10T00:20:01.901Z,8.4
2019-03-10T00:25:02.102Z,8.3
2019-03-10T00:30:01.886Z,8.3
2019-03-10T00:35:02.047Z,8
2019-03-10T00:40:01.733Z,8.1
2019-03-10T00:45:02.117Z,7.9
2019-03-10T00:50:01.891Z,7.9
2019-03-10T00:55:01.778Z,7.7
2019-03-10T01:00:02.037Z,7.6
2019-03-10T01:05:02.148Z,7.8
2019-03-10T01:10:01.900Z,7.7
2019-03-10T01:15:02.056Z,7.8
2019-03-10T01:20:02.604Z,7.7
2019-03-10T01:25:02.372Z,8.1
2019-03-10T01:30:02.507Z,8
2019-03-10T01:35:02.106Z,8
2019-03-10T01:40:03.134Z,8.1
2019-03-10T01:45:02.361Z,8.2
2019-03-10T01:50:02.310Z,8
2019-03-10T01:55:01.972Z,8.2
2019-03-10T02:00:02.317Z,8
2019-03-10T02:05:03.579Z,8
2019-03-10T02:10:03.186Z,7.7
2019-03-10T02:15:02.423Z,7.6
2019-03-10T02:20:04.182Z,7.7
2019-03-10T02:25:02.852Z,7.6
2019-03-10T02:30:01.858Z,7.5
2019-03-10T02:35:02.313Z,7.4
2019-03-10T02:40:01.901Z,7.6
2019-03-10T02:45:02.034Z,7.5
2019-03-10T02:50:01.995Z,7.3
2019-03-10T02:55:01.970Z,7.5
2019-03-10T03:00:02.220Z,7.5
2019-03-10T03:05:02.458Z,7.5
2019-03-10T03:10:03.034Z,7.6
2019-03-10T03:15:03.071Z,7.4
2019-03-10T03:20:02.319Z,7.2
2019-03-10T03:25:02.039Z,7.3
2019-03-10T03:30:02.191Z,7.4
2019-03-10T03:35:02.856Z,7.5
2019-03-10T03:40:01.937Z,7.7
2019-03-10T03:45:01.921Z,7.6
2019-03-10T03:50:01.740Z,7.7
2019-03-10T03:55:02.427Z,7.7
2019-03-10T04:00:02.021Z,7.6
2019-03-10T04:05:01.933Z,7.4
2019-03-10T04:10:01.858Z,7.5
2019-03-10T04:15:03.133Z,7.2
2019-03-10T04:20:01.657Z,7
2019-03-10T04:25:01.743Z,7
2019-03-10T04:30:01.806Z,6.9
2019-03-10T04:35:01.642Z,7
2019-03-10T04:40:03.427Z,7
2019-03-10T04:45:01.693Z,7
2019-03-10T04:50:01.765Z,7
2019-03-10T04:55:01.612Z,6.8
2019-03-10T05:00:01.948Z,6.8
2019-03-10T05:05:01.680Z,6.6
2019-03-10T05:10:01.707Z,6.6
2019-03-10T05:15:01.578Z,6.6
2019-03-10T05:20:01.456Z,6.5
2019-03-10T05:25:01.689Z,6.5
2019-03-10T05:30:01.576Z,6.6
2019-03-10T05:35:01.588Z,6.5
2019-03-10T05:40:01.526Z,6.4
2019-03-10T05:45:01.796Z,6.6
2019-03-10T05:50:01.469Z,6.7
2019-03-10T05:55:01.756Z,6.5
2019-03-10T06:00:01.796Z,6.5
2019-03-10T06:05:01.337Z,6.6
2019-03-10T06:10:01.584Z,6.6
2019-03-10T06:15:01.582Z,6.6
2019-03-10T06:20:01.663Z,6.8
2019-03-10T06:25:01.478Z,6.7
2019-03-10T06:30:01.439Z,6.6
2019-03-10T06:35:01.410Z,6.7
2019-03-10T06:40:01.513Z,6.4
2019-03-10T06:45:01.454Z,6.4
2019-03-10T06:50:01.527Z,6.4
2019-03-10T06:55:01.213Z,6.4
2019-03-10T07:00:01.542Z,6.6
2019-03-10T07:05:01.299Z,6.2
2019-03-10T07:10:01.454Z,6.3
2019-03-10T07:15:01.667Z,6.2
2019-03-10T07:20:01.142Z,6.3
2019-03-10T07:25:02.131Z,6.3
2019-03-10T07:30:01.427Z,6.2
2019-03-10T07:35:01.398Z,6.3
2019-03-10T07:40:01.429Z,6.4
2019-03-10T07:45:01.615Z,6.5
2019-03-10T07:50:01.332Z,6.2
2019-03-10T07:55:01.267Z,6.3
2019-03-10T08:00:01.464Z,6.3
2019-03-10T08:05:01.416Z,6.2
2019-03-10T08:10:01.096Z,6.2
2019-03-10T08:15:01.462Z,6.3
2019-03-10T08:20:01.109Z,6.3
2019-03-10T08:25:01.303Z,6.3
2019-03-10T08:30:01.438Z,6.2
2019-03-10T08:35:01.435Z,6.6
2019-03-10T08:40:02.234Z,6.6
2019-03-10T08:45:01.349Z,6.3
2019-03-10T08:50:01.361Z,6.5
2019-03-10T08:55:01.254Z,6.5
2019-03-10T09:00:01.467Z,6.5
2019-03-10T09:05:01.189Z,6.3
2019-03-10T09:10:01.494Z,6.4
2019-03-10T09:15:01.179Z,6.3
2019-03-10T09:20:01.115Z,6.2
2019-03-10T09:25:01.314Z,6.1
2019-03-10T09:30:01.377Z,6.1
2019-03-10T09:35:01.230Z,6.1
2019-03-10T09:40:01.016Z,6.1
2019-03-10T09:45:01.250Z,6
2019-03-10T09:50:01.468Z,6.2
2019-03-10T09:55:01.794Z,6.2
2019-03-10T10:00:01.320Z,5.9
2019-03-10T10:05:01.015Z,6.1
2019-03-10T10:10:01.361Z,6.3
2019-03-10T10:15:01.250Z,6.3
2019-03-10T10:20:01.597Z,6.3
2019-03-10T10:25:01.298Z,6.4
2019-03-10T10:30:01.006Z,6.6
2019-03-10T10:35:01.081Z,6.6
2019-03-10T10:40:01.083Z,6.9
2019-03-10T10:45:01.119Z,7.1
2019-03-10T10:50:00.998Z,7.3
2019-03-10T10:55:01.976Z,7.6
2019-03-10T11:00:01.226Z,7.8
2019-03-10T11:05:00.968Z,8.2
2019-03-10T11:10:01.016Z,8.4
2019-03-10T11:15:00.813Z,8.4
2019-03-10T11:20:01.113Z,8.3
2019-03-10T11:25:01.194Z,8.5
2019-03-10T11:30:00.876Z,9
2019-03-10T11:35:00.877Z,9.3
2019-03-10T11:40:01.098Z,9.8
2019-03-10T11:45:00.854Z,9.9
2019-03-10T11:50:00.822Z,10
2019-03-10T11:55:01.067Z,10
2019-03-10T12:00:01.184Z,10
2019-03-10T12:05:00.863Z,9.9
2019-03-10T12:10:00.970Z,10
2019-03-10T12:15:01.035Z,10
2019-03-10T12:20:01.102Z,10
2019-03-10T12:25:00.728Z,9.9
2019-03-10T12:30:01.333Z,10.1
2019-03-10T12:35:00.774Z,9.9
2019-03-10T12:40:01.191Z,9.8
2019-03-10T12:45:00.928Z,9.6
2019-03-10T12:50:00.881Z,9.5
2019-03-10T12:55:00.827Z,9.3
2019-03-10T13:00:00.795Z,9.2
2019-03-10T13:05:00.907Z,9.1
2019-03-10T13:10:01.078Z,9
2019-03-10T13:15:01.187Z,8.9
2019-03-10T13:20:01.164Z,8.9
2019-03-10T13:25:00.714Z,8.9
2019-03-10T13:30:01.921Z,9.3
2019-03-10T13:35:00.898Z,9.8
2019-03-10T13:40:00.917Z,10.2
2019-03-10T13:45:01.737Z,10.3
2019-03-10T13:50:01.037Z,10.1
2019-03-10T13:55:00.681Z,8.3
2019-03-10T14:00:00.795Z,7.1
2019-03-10T14:05:01.074Z,6.7
2019-03-10T14:10:00.627Z,6.3
2019-03-10T14:15:00.653Z,6.2
2019-03-10T14:20:00.576Z,5.7
2019-03-10T14:25:00.946Z,5.3
2019-03-10T14:30:00.725Z,5.3
2019-03-10T14:35:00.842Z,5.1
2019-03-10T14:40:00.828Z,5.3
2019-03-10T14:45:00.484Z,5.4
2019-03-10T14:50:00.554Z,5.3
2019-03-10T14:55:01.067Z,5.7
2019-03-10T15:10:13.424Z,5.8
2019-03-10T15:15:06.760Z,5.9
2019-03-10T15:20:06.517Z,5.9
2019-03-10T15:25:06.758Z,6
2019-03-10T15:30:06.725Z,6
2019-03-10T15:35:06.780Z,6.1
2019-03-10T15:40:06.496Z,6.1
2019-03-10T15:45:06.863Z,6.2
2019-03-10T15:50:06.626Z,6.1
2019-03-10T15:55:06.526Z,6.1
2019-03-10T16:00:06.696Z,6.2
2019-03-10T16:05:06.771Z,6
2019-03-10T16:10:06.613Z,5.8
2019-03-10T16:15:06.682Z,5.7
2019-03-10T16:20:06.784Z,5.7
2019-03-10T16:25:06.482Z,5.7
2019-03-10T16:30:06.984Z,5.7
2019-03-10T16:35:07.143Z,5.8
2019-03-10T16:40:07.009Z,5.7
2019-03-10T16:45:06.739Z,5.8
2019-03-10T16:50:06.925Z,5.8
2019-03-10T16:55:06.987Z,5.7
2019-03-10T17:00:08.139Z,5.5
2019-03-10T17:05:06.340Z,5.4
2019-03-10T17:10:07.834Z,5.3
2019-03-10T17:15:06.670Z,4.8
2019-03-10T17:20:06.810Z,4.3
2019-03-10T17:25:06.823Z,4.4
2019-03-10T17:30:06.394Z,4.6
2019-03-10T17:35:06.281Z,4.5
2019-03-10T17:40:06.482Z,4.7
2019-03-10T17:45:06.455Z,4.7
2019-03-10T17:50:06.519Z,4.7
2019-03-10T17:55:06.830Z,4.8
2019-03-10T18:00:06.565Z,4.8
2019-03-10T18:15:14.977Z,4.8
2019-03-10T18:20:06.086Z,4.9
2019-03-10T18:25:06.207Z,4.7
2019-03-10T18:30:06.290Z,4.8
2019-03-10T18:35:06.373Z,4.7
2019-03-10T18:40:06.160Z,4.8
2019-03-10T18:45:06.027Z,4.8
2019-03-10T18:50:06.050Z,4.4
2019-03-10T18:55:07.436Z,4.4
2019-03-10T19:00:06.406Z,4.4
2019-03-10T19:05:06.058Z,4.5
2019-03-10T19:10:06.655Z,4.4
2019-03-10T19:20:15.210Z,4.4
2019-03-10T19:25:06.756Z,4.2
2019-03-10T19:30:06.407Z,4.3
2019-03-10T19:35:06.592Z,4.3
2019-03-10T19:40:07.053Z,4.4
2019-03-10T19:45:06.655Z,4.5
2019-03-10T19:50:06.586Z,4.6
2019-03-10T19:55:06.670Z,4.6
2019-03-10T20:00:06.707Z,4.7
2019-03-10T20:05:06.719Z,4.8
2019-03-10T20:10:06.686Z,4.9
2019-03-10T20:15:07.001Z,5
2019-03-10T20:20:06.700Z,4.9
2019-03-10T20:25:06.392Z,5.1
2019-03-10T20:30:06.402Z,5.1
2019-03-10T20:35:06.539Z,5.2
2019-03-10T20:40:07.526Z,5.1
2019-03-10T20:45:06.243Z,5.1
2019-03-10T20:50:07.213Z,5.3
2019-03-10T20:55:06.341Z,5.3
2019-03-10T21:00:06.555Z,5.4
2019-03-10T21:05:06.667Z,5.5
2019-03-10T21:10:06.424Z,5.5
2019-03-10T21:15:06.999Z,5.6
2019-03-10T21:20:06.699Z,5.5
2019-03-10T21:25:06.562Z,5.5
2019-03-10T21:30:07.103Z,5.5
2019-03-10T21:35:16.885Z,5.5
2019-03-10T21:40:06.363Z,5.5
2019-03-10T21:45:06.615Z,5.5
2019-03-10T21:50:06.810Z,5.5
2019-03-10T21:55:06.792Z,5.5
2019-03-10T22:00:06.837Z,5.5
2019-03-10T22:15:18.341Z,5.4
2019-03-10T22:21:12.086Z,5.4
2019-03-10T22:25:12.858Z,5.6
2019-03-10T22:30:10.406Z,5.6
2019-03-10T22:35:07.192Z,5.5
2019-03-10T22:40:07.014Z,5.5
2019-03-10T22:55:19.188Z,5.8
2019-03-10T23:00:07.632Z,5.8
2019-03-10T23:05:07.284Z,5.9
2019-03-10T23:10:07.275Z,5.8
2019-03-10T23:15:06.899Z,5.7
2019-03-10T23:20:07.361Z,5.7
2019-03-10T23:25:06.876Z,5.7
2019-03-10T23:30:06.958Z,5.7
2019-03-10T23:35:06.669Z,5.7
2019-03-10T23:40:08.073Z,5.7
2019-03-10T23:56:27.710Z,5.3
